Time;durP1;ratioP1;P1;durP2;ratioP2;P2;SDS_P1;SDS_P2;PMS_P1;PMS_P2;Temp;Humidity;BMP_temperature;BMP_pressure;BME280_temperature;BME280_humidity;BME280_pressure;Samples;Min_cycle;Max_cycle;Signal;HPM_P1;HPM_P2
2021/11/01 00:00:42;;;;;;;51.20;30.63;;;7.20;77.80;;;;;;5056241;28;20298;-32
2021/11/01 00:03:07;;;;;;;54.25;31.48;;;7.20;77.60;;;;;;5055610;28;20064;-33
2021/11/01 00:05:33;;;;;;;54.13;31.75;;;7.20;77.70;;;;;;5056154;28;20116;-40
2021/11/01 00:07:59;;;;;;;62.15;37.88;;;7.20;78.20;;;;;;5055817;28;20029;-34
2021/11/01 00:10:25;;;;;;;65.50;36.03;;;7.30;78.80;;;;;;5056075;28;20431;-32
2021/11/01 00:12:50;;;;;;;63.50;35.45;;;7.30;79.10;;;;;;5055268;28;20117;-40
2021/11/01 00:15:16;;;;;;;58.60;35.13;;;7.30;79.20;;;;;;5055885;28;20033;-40
2021/11/01 00:17:42;;;;;;;56.10;33.80;;;7.40;79.30;;;;;;5055514;28;20025;-40
2021/11/01 00:20:09;;;;;;;65.75;38.35;;;7.40;79.40;;;;;;5055956;28;20370;-39
2021/11/01 00:22:35;;;;;;;56.00;33.03;;;7.40;79.80;;;;;;5055175;28;20413;-32
2021/11/01 00:25:02;;;;;;;55.10;34.10;;;7.50;79.90;;;;;;5055509;28;20033;-41
2021/11/01 00:27:28;;;;;;;64.30;37.70;;;7.50;79.80;;;;;;5055337;28;20033;-33
2021/11/01 00:29:54;;;;;;;65.05;35.55;;;7.50;79.70;;;;;;5055744;28;20029;-33
2021/11/01 00:32:19;;;;;;;50.78;31.25;;;7.60;79.80;;;;;;5055430;28;20037;-40
2021/11/01 00:34:45;;;;;;;68.97;37.40;;;7.60;79.70;;;;;;5055609;28;20045;-34
2021/11/01 00:37:11;;;;;;;61.38;36.47;;;7.60;79.60;;;;;;5055628;28;20025;-33
2021/11/01 00:39:37;;;;;;;57.40;32.95;;;7.60;79.70;;;;;;5054207;28;20352;-40
2021/11/01 00:42:05;;;;;;;56.35;34.15;;;7.60;79.50;;;;;;5055175;28;20033;-41
2021/11/01 00:44:30;;;;;;;60.67;35.40;;;7.60;79.20;;;;;;5055692;28;20420;-41
2021/11/01 00:46:58;;;;;;;61.63;34.63;;;7.60;79.10;;;;;;5055187;28;20021;-33
2021/11/01 00:49:27;;;;;;;57.20;34.60;;;7.70;79.00;;;;;;5055721;28;20047;-41
2021/11/01 00:51:54;;;;;;;56.42;32.95;;;7.70;78.70;;;;;;5055296;28;20025;-33
2021/11/01 00:54:21;;;;;;;61.22;34.88;;;7.70;78.70;;;;;;5054167;28;20314;-33
2021/11/01 00:56:47;;;;;;;64.63;36.22;;;7.60;78.70;;;;;;5055840;28;20035;-41
2021/11/01 00:59:13;;;;;;;61.78;37.42;;;7.60;78.60;;;;;;5059414;28;20048;-41
2021/11/01 01:01:39;;;;;;;54.85;33.17;;;7.60;78.50;;;;;;5059062;28;20036;-33
2021/11/01 01:04:05;;;;;;;63.75;35.78;;;7.60;78.50;;;;;;5059199;28;20393;-41
2021/11/01 01:06:31;;;;;;;63.38;37.42;;;7.60;78.40;;;;;;5059079;28;20035;-33
2021/11/01 01:08:57;;;;;;;54.58;33.13;;;7.60;78.30;;;;;;5059271;28;20051;-33
2021/11/01 01:11:24;;;;;;;53.88;31.00;;;7.50;78.10;;;;;;5059187;28;20075;-41
2021/11/01 01:13:52;;;;;;;59.72;33.83;;;7.60;78.00;;;;;;5058668;28;20032;-40
2021/11/01 01:18:44;;;;;;;61.70;35.60;;;7.50;78.00;;;;;;5058633;28;20457;-34
2021/11/01 01:23:55;;;;;;;52.35;32.58;;;7.50;78.10;;;;;;5059094;28;20494;-41
2021/11/01 01:26:21;;;;;;;63.58;34.42;;;7.40;78.10;;;;;;5059027;28;20108;-33
2021/11/01 01:28:47;;;;;;;62.95;35.03;;;7.50;78.10;;;;;;5058627;28;20417;-34
2021/11/01 01:31:13;;;;;;;56.53;34.00;;;7.50;78.10;;;;;;5058538;28;20090;-41
2021/11/01 01:33:39;;;;;;;56.30;33.13;;;7.50;78.00;;;;;;5058493;28;20025;-41
2021/11/01 01:36:06;;;;;;;58.60;34.97;;;7.40;77.80;;;;;;5058427;28;20033;-41
2021/11/01 01:38:32;;;;;;;61.22;36.17;;;7.40;77.80;;;;;;5058442;28;20334;-33
2021/11/01 01:40:58;;;;;;;56.13;33.95;;;7.40;77.70;;;;;;5058471;28;20095;-33
2021/11/01 01:43:24;;;;;;;60.83;37.03;;;7.40;77.60;;;;;;5057959;28;20406;-41
2021/11/01 01:45:51;;;;;;;56.20;32.92;;;7.40;77.70;;;;;;5058613;28;20032;-33
2021/11/01 01:48:19;;;;;;;58.08;33.97;;;7.40;77.60;;;;;;5058036;28;20428;-41
2021/11/01 01:50:45;;;;;;;64.85;38.78;;;7.40;77.60;;;;;;5058614;28;20112;-33
2021/11/01 01:53:11;;;;;;;53.38;32.88;;;7.40;78.10;;;;;;5057851;28;20028;-34
2021/11/01 01:55:37;;;;;;;60.30;34.08;;;7.30;78.10;;;;;;5058076;28;20468;-40
2021/11/01 01:58:03;;;;;;;56.97;33.28;;;7.40;78.10;;;;;;5057976;28;20440;-33
2021/11/01 02:02:55;;;;;;;69.85;36.88;;;7.30;78.00;;;;;;5058077;28;20079;-42
2021/11/01 02:05:21;;;;;;;61.15;35.55;;;7.40;78.00;;;;;;5058445;28;20031;-34
2021/11/01 02:07:57;;;;;;;61.20;36.58;;;7.30;77.90;;;;;;5057587;28;20025;-33
2021/11/01 02:10:29;;;;;;;64.00;34.03;;;7.30;77.90;;;;;;5057789;28;20102;-41
2021/11/01 02:13:13;;;;;;;63.03;38.10;;;7.30;78.10;;;;;;5057638;28;20033;-33
2021/11/01 02:15:44;;;;;;;51.83;31.27;;;7.30;78.20;;;;;;5057621;28;20033;-38
2021/11/01 02:18:12;;;;;;;54.05;32.38;;;7.30;77.80;;;;;;5057455;28;20036;-41
2021/11/01 02:21:04;;;;;;;58.00;35.13;;;7.20;77.50;;;;;;5058119;28;20029;-33
2021/11/01 02:23:31;;;;;;;60.47;35.50;;;7.20;77.40;;;;;;5057176;28;20037;-41
2021/11/01 02:26:03;;;;;;;68.38;40.30;;;7.20;77.70;;;;;;5057561;28;20029;-41
2021/11/01 02:28:32;;;;;;;68.45;37.95;;;7.20;78.20;;;;;;5057191;28;20055;-33
2021/11/01 02:30:59;;;;;;;66.32;36.85;;;7.20;78.20;;;;;;5057839;28;20029;-41
2021/11/01 02:33:26;;;;;;;70.68;37.53;;;7.20;78.10;;;;;;5056969;28;20036;-33
2021/11/01 02:35:53;;;;;;;62.42;34.75;;;7.10;78.10;;;;;;5057812;28;20124;-40
2021/11/01 02:38:22;;;;;;;60.72;36.40;;;7.10;78.20;;;;;;5057487;28;20070;-33
2021/11/01 02:40:49;;;;;;;69.80;39.45;;;7.10;78.30;;;;;;5057569;28;20350;-41
2021/11/01 02:43:16;;;;;;;75.60;43.28;;;7.10;78.40;;;;;;5056996;28;20069;-33
2021/11/01 02:45:42;;;;;;;68.10;38.80;;;7.10;78.80;;;;;;5057645;28;20100;-33
2021/11/01 02:48:09;;;;;;;68.32;37.97;;;7.10;79.00;;;;;;5057173;28;20029;-33
2021/11/01 02:50:35;;;;;;;72.20;41.33;;;7.10;79.20;;;;;;5057524;28;20067;-33
2021/11/01 02:53:01;;;;;;;79.07;43.63;;;7.10;79.30;;;;;;5057012;28;20059;-33
2021/11/01 02:55:27;;;;;;;65.13;39.63;;;7.10;79.90;;;;;;5056843;28;20087;-33
2021/11/01 02:57:53;;;;;;;75.82;43.28;;;7.10;80.40;;;;;;5056932;28;20029;-33
2021/11/01 03:00:21;;;;;;;60.78;36.20;;;7.10;81.10;;;;;;5057300;28;20040;-41
2021/11/01 03:02:48;;;;;;;69.53;41.05;;;7.20;81.50;;;;;;5055587;28;20024;-40
2021/11/01 03:05:17;;;;;;;74.07;42.08;;;7.20;81.80;;;;;;5057269;28;20322;-40
2021/11/01 03:07:44;;;;;;;67.80;40.17;;;7.30;82.00;;;;;;5056784;28;20104;-40
2021/11/01 03:10:11;;;;;;;66.20;40.58;;;7.30;82.00;;;;;;5057043;28;20055;-33
2021/11/01 03:12:39;;;;;;;62.80;37.60;;;7.30;82.30;;;;;;5056314;28;20388;-33
2021/11/01 03:15:08;;;;;;;60.40;38.28;;;7.40;82.60;;;;;;5056536;28;20040;-33
2021/11/01 03:17:46;;;;;;;73.72;42.38;;;7.40;82.80;;;;;;5056489;28;20071;-33
2021/11/01 03:20:19;;;;;;;72.72;43.20;;;7.50;82.80;;;;;;5056870;28;20037;-41
2021/11/01 03:22:53;;;;;;;61.67;37.17;;;7.50;82.90;;;;;;5056014;28;20033;-33
2021/11/01 03:25:40;;;;;;;57.03;35.38;;;7.50;82.90;;;;;;5056911;28;20036;-41
2021/11/01 03:28:08;;;;;;;64.82;41.10;;;7.60;82.60;;;;;;5056717;28;20025;-33
2021/11/01 03:30:35;;;;;;;61.30;39.42;;;7.60;82.80;;;;;;5056589;28;20082;-41
2021/11/01 03:33:02;;;;;;;63.40;38.92;;;7.60;83.00;;;;;;5056007;28;20033;-41
2021/11/01 03:35:29;;;;;;;64.63;40.00;;;7.60;83.00;;;;;;5056618;28;20307;-33
2021/11/01 03:37:57;;;;;;;60.80;38.78;;;7.70;82.90;;;;;;5056233;28;20087;-33
2021/11/01 03:40:27;;;;;;;62.53;38.83;;;7.70;82.90;;;;;;5056753;28;20088;-41
2021/11/01 03:42:55;;;;;;;61.08;38.78;;;7.70;82.80;;;;;;5056108;28;20051;-33
2021/11/01 03:45:23;;;;;;;60.85;38.35;;;7.70;82.70;;;;;;5056438;28;20337;-41
2021/11/01 03:47:52;;;;;;;55.75;35.72;;;7.70;82.80;;;;;;5055657;28;20021;-41
2021/11/01 03:52:47;;;;;;;67.88;37.72;;;7.80;82.70;;;;;;5055861;28;20086;-33
2021/11/01 03:55:14;;;;;;;51.28;35.00;;;7.80;82.70;;;;;;5056024;28;20048;-40
2021/11/01 03:57:40;;;;;;;54.50;37.75;;;7.80;82.60;;;;;;5055623;28;20043;-41
2021/11/01 04:00:07;;;;;;;63.70;39.33;;;7.80;82.50;;;;;;5056242;28;20321;-34
2021/11/01 04:02:33;;;;;;;58.28;35.53;;;7.80;82.30;;;;;;5055772;28;20040;-40
2021/11/01 04:05:01;;;;;;;59.65;38.33;;;7.80;82.30;;;;;;5056102;28;20309;-40
2021/11/01 04:07:27;;;;;;;55.50;36.30;;;7.80;82.20;;;;;;5055407;28;20491;-41
2021/11/01 04:09:54;;;;;;;59.47;38.35;;;7.80;82.20;;;;;;5056072;28;20025;-33
2021/11/01 04:12:20;;;;;;;70.50;41.90;;;7.80;82.30;;;;;;5055718;28;20033;-41
2021/11/01 04:14:49;;;;;;;54.40;35.92;;;7.80;82.20;;;;;;5056024;28;20036;-34
2021/11/01 04:20:12;;;;;;;59.58;35.85;;;7.80;82.30;;;;;;5056167;28;20506;-33
2021/11/01 04:22:39;;;;;;;60.75;38.78;;;7.80;82.20;;;;;;5055419;28;20325;-41
2021/11/01 04:25:06;;;;;;;62.25;38.70;;;7.80;82.30;;;;;;5055953;28;20312;-34
2021/11/01 04:27:32;;;;;;;63.05;40.22;;;7.80;82.30;;;;;;5055236;28;20029;-34
2021/11/01 04:30:00;;;;;;;55.22;36.88;;;7.80;82.30;;;;;;5055888;28;20091;-41
2021/11/01 04:32:37;;;;;;;60.88;38.42;;;7.90;82.50;;;;;;5057061;28;20271;-33
2021/11/01 04:35:23;;;;;;;62.72;36.40;;;7.80;82.40;;;;;;5060038;28;20112;-41
2021/11/01 04:37:53;;;;;;;61.50;40.03;;;7.80;82.50;;;;;;5059606;28;20033;-34
2021/11/01 04:43:24;;;;;;;59.38;35.88;;;7.90;82.60;;;;;;5059184;28;20043;-32
2021/11/01 04:54:03;;;;;;;52.13;33.25;;;7.90;81.90;;;;;;5059422;28;20082;-39
2021/11/01 04:56:29;;;;;;;48.33;31.23;;;7.90;81.40;;;;;;5059274;28;20089;-32
2021/11/01 04:58:56;;;;;;;52.97;33.70;;;7.80;81.10;;;;;;5058916;28;20451;-34
2021/11/01 05:01:29;;;;;;;54.55;34.90;;;7.80;81.00;;;;;;5059258;28;20056;-33
2021/11/01 05:03:59;;;;;;;94.93;52.47;;;7.70;80.90;;;;;;5059342;28;20028;-39
2021/11/01 05:06:26;;;;;;;135.80;67.35;;;7.70;81.00;;;;;;5058876;28;20428;-40
2021/11/01 05:08:58;;;;;;;71.80;42.50;;;7.70;81.10;;;;;;5058741;28;20104;-33
2021/11/01 05:13:53;;;;;;;75.13;42.47;;;7.70;81.20;;;;;;5059003;28;20021;-33
2021/11/01 05:24:41;;;;;;;65.35;38.15;;;7.60;81.10;;;;;;5058975;28;20046;-33
2021/11/01 05:29:50;;;;;;;71.70;39.35;;;7.60;81.30;;;;;;5058922;28;20036;-40
2021/11/01 05:32:25;;;;;;;81.50;38.22;;;7.60;81.40;;;;;;5058246;28;20066;-32
2021/11/01 05:34:50;;;;;;;89.35;46.75;;;7.60;81.50;;;;;;5057229;28;20333;-33
2021/11/01 05:37:16;;;;;;;80.55;46.30;;;7.60;81.50;;;;;;5058600;28;20035;-40
2021/11/01 05:39:42;;;;;;;79.63;47.75;;;7.60;81.50;;;;;;5058421;28;20486;-33
2021/11/01 05:42:09;;;;;;;69.32;42.65;;;7.70;81.60;;;;;;5057958;28;20028;-41
2021/11/01 05:44:35;;;;;;;81.03;48.65;;;7.70;81.60;;;;;;5057217;28;20340;-34
2021/11/01 05:47:02;;;;;;;79.63;48.70;;;7.70;81.70;;;;;;5057946;28;20025;-35
2021/11/01 05:49:28;;;;;;;71.82;41.47;;;7.70;81.70;;;;;;5058136;28;20290;-41
2021/11/01 05:51:54;;;;;;;146.00;88.13;;;7.80;81.80;;;;;;5058007;28;20041;-35
2021/11/01 05:54:24;;;;;;;78.88;49.65;;;7.80;81.70;;;;;;5057554;28;20115;-33
2021/11/01 06:10:24;;;;;;;58.88;37.05;;;8.00;81.80;;;;;;5057945;28;20110;-34
2021/11/01 06:15:17;;;;;;;106.00;49.65;;;8.10;82.00;;;;;;5058009;28;20440;-33
2021/11/01 06:17:43;;;;;;;70.13;35.78;;;8.20;82.20;;;;;;5057092;28;20244;-41
2021/11/01 06:20:10;;;;;;;50.20;31.88;;;8.20;82.20;;;;;;5057893;28;20124;-33
2021/11/01 06:22:36;;;;;;;69.25;39.85;;;8.30;82.20;;;;;;5057458;28;20033;-41
2021/11/01 06:25:14;;;;;;;74.65;47.13;;;8.30;82.20;;;;;;5057757;28;20118;-34
2021/11/01 06:27:41;;;;;;;62.45;38.42;;;8.40;82.20;;;;;;5057449;28;20100;-40
2021/11/01 06:30:21;;;;;;;68.80;41.53;;;8.40;82.10;;;;;;5051219;28;20037;-33
2021/11/01 06:33:08;;;;;;;65.23;39.57;;;8.50;82.00;;;;;;5040864;28;20029;-41
2021/11/01 06:41:26;;;;;;;54.33;34.28;;;8.60;81.80;;;;;;5037326;28;20382;-41
2021/11/01 06:52:05;;;;;;;59.28;37.10;;;8.90;81.90;;;;;;5036506;28;20028;-33
2021/11/01 07:16:12;;;;;;;53.97;34.38;;;9.20;80.20;;;;;;5036887;28;20091;-41
2021/11/01 07:19:04;;;;;;;50.30;32.30;;;9.30;80.00;;;;;;5036554;28;20123;-33
2021/11/01 08:48:43;;;;;;;74.65;48.60;;;10.60;76.10;;;;;;5051367;28;20045;-41
2021/11/01 09:38:54;;;;;;;54.90;37.20;;;11.10;73.40;;;;;;5057833;28;20388;-41
2021/11/01 09:41:24;;;;;;;55.83;36.60;;;11.20;73.40;;;;;;5058123;28;20033;-40
2021/11/01 09:43:56;;;;;;;66.32;41.40;;;11.20;72.90;;;;;;5057863;28;20036;-34
2021/11/01 09:46:24;;;;;;;56.90;34.42;;;11.20;72.90;;;;;;5058090;28;20029;-34
2021/11/01 09:48:58;;;;;;;62.05;37.67;;;11.20;72.70;;;;;;5058030;28;20349;-41
2021/11/01 09:51:24;;;;;;;63.83;38.72;;;11.30;72.50;;;;;;5057925;28;20325;-40
2021/11/01 09:53:50;;;;;;;57.47;33.53;;;11.30;72.50;;;;;;5057648;28;20029;-33
2021/11/01 10:01:34;;;;;;;60.58;36.70;;;11.40;72.70;;;;;;5057505;28;20091;-32
2021/11/01 10:04:00;;;;;;;56.22;35.92;;;11.40;72.70;;;;;;5057828;28;20036;-41
2021/11/01 10:06:28;;;;;;;64.13;37.92;;;11.40;72.70;;;;;;5057595;28;20029;-41
2021/11/01 10:09:00;;;;;;;52.63;34.70;;;11.40;72.70;;;;;;5057752;28;20086;-41
2021/11/01 10:11:39;;;;;;;55.22;34.28;;;11.50;72.80;;;;;;5057112;28;20313;-34
2021/11/01 10:14:08;;;;;;;58.67;34.15;;;11.50;72.70;;;;;;5057562;28;20337;-34
2021/11/01 10:19:32;;;;;;;52.65;33.33;;;11.50;72.60;;;;;;5057259;28;20032;-43
2021/11/01 10:22:01;;;;;;;58.40;35.85;;;11.50;72.50;;;;;;5057376;28;20033;-40
2021/11/01 10:24:38;;;;;;;56.38;31.65;;;11.50;72.50;;;;;;5057262;28;20049;-32
2021/11/01 10:27:09;;;;;;;45.97;30.15;;;11.60;72.50;;;;;;5057437;28;20029;-33
2021/11/01 10:29:51;;;;;;;57.40;33.80;;;11.70;72.40;;;;;;5056394;28;20022;-33
2021/11/01 10:32:43;;;;;;;49.55;30.33;;;11.70;72.30;;;;;;5057052;28;20041;-42
2021/11/01 10:35:21;;;;;;;47.85;32.67;;;11.70;72.30;;;;;;5057278;28;20029;-40
2021/11/01 11:38:09;;;;;;;42.42;24.15;;;11.90;71.90;;;;;;5056115;28;20067;-41
2021/11/01 11:49:16;;;;;;;36.78;22.70;;;11.90;72.30;;;;;;5053968;28;20040;-34
2021/11/01 11:51:59;;;;;;;49.17;26.00;;;11.90;72.20;;;;;;5055284;28;20028;-42
2021/11/01 11:54:32;;;;;;;42.67;23.27;;;11.90;72.20;;;;;;5055410;28;20041;-34
2021/11/01 11:57:03;;;;;;;53.05;27.42;;;11.90;72.20;;;;;;5055447;28;20155;-34
2021/11/01 11:59:34;;;;;;;;;;;11.90;72.30;;;;;;5056157;28;20090;-41
2021/11/01 12:02:06;;;;;;;40.08;24.73;;;11.90;72.20;;;;;;5055316;28;20328;-42
2021/11/01 12:04:36;;;;;;;65.35;38.25;;;11.90;72.30;;;;;;5055817;28;20064;-34
2021/11/01 12:07:04;;;;;;;54.10;33.30;;;11.80;72.20;;;;;;5055687;28;20028;-41
2021/11/01 12:09:44;;;;;;;41.10;22.98;;;11.80;72.30;;;;;;5055986;28;20037;-34
2021/11/01 12:17:30;;;;;;;45.67;25.02;;;11.80;72.50;;;;;;5054537;28;20345;-42
2021/11/01 12:20:01;;;;;;;42.78;25.65;;;11.90;72.60;;;;;;5046795;28;20040;-41
2021/11/01 12:22:32;;;;;;;48.47;27.33;;;11.90;72.60;;;;;;5035555;28;20405;-42
2021/11/01 12:25:01;;;;;;;45.00;25.52;;;11.90;72.60;;;;;;5035744;28;20040;-34
2021/11/01 12:27:29;;;;;;;56.92;35.63;;;11.90;72.50;;;;;;5033958;28;20021;-34
2021/11/01 12:29:55;;;;;;;50.88;31.90;;;11.90;72.50;;;;;;5048490;28;20429;-34
2021/11/01 12:32:22;;;;;;;48.05;28.38;;;12.00;72.60;;;;;;5055111;28;20044;-42
2021/11/01 12:34:59;;;;;;;50.85;31.23;;;12.00;72.50;;;;;;5055002;28;20403;-34
2021/11/01 12:37:33;;;;;;;51.47;30.40;;;12.00;72.60;;;;;;5054836;28;20029;-32
2021/11/01 12:40:15;;;;;;;39.33;24.17;;;12.10;72.60;;;;;;5055409;28;20087;-40
2021/11/01 12:58:56;;;;;;;43.20;24.92;;;12.20;72.20;;;;;;5038829;28;20292;-33
2021/11/01 13:01:23;;;;;;;40.15;23.88;;;12.20;72.20;;;;;;5039194;28;20033;-35
2021/11/01 13:03:57;;;;;;;36.28;22.50;;;12.20;72.20;;;;;;5038463;28;20299;-34
2021/11/01 13:06:52;;;;;;;43.97;24.65;;;12.30;72.20;;;;;;5038275;28;20028;-34
2021/11/01 13:09:34;;;;;;;44.00;25.02;;;12.30;72.10;;;;;;5038857;28;20026;-36
2021/11/01 13:19:49;;;;;;;60.47;32.78;;;12.30;71.80;;;;;;5038854;28;20102;-42
2021/11/01 13:22:24;;;;;;;81.57;39.88;;;12.20;71.90;;;;;;5038235;28;20112;-41
2021/11/01 13:38:45;;;;;;;55.20;33.63;;;11.90;72.50;;;;;;5037967;28;20341;-35
2021/11/01 13:41:21;;;;;;;54.78;31.48;;;11.80;72.70;;;;;;5037865;28;20103;-40
2021/11/01 13:43:47;;;;;;;49.65;28.60;;;11.80;72.90;;;;;;5037615;28;20060;-41
2021/11/01 13:46:14;;;;;;;57.30;36.58;;;11.70;73.00;;;;;;5038116;28;20037;-39
2021/11/01 13:48:41;;;;;;;55.22;35.92;;;11.70;73.20;;;;;;5037688;28;20121;-36
2021/11/01 13:51:11;;;;;;;47.53;28.40;;;11.60;73.20;;;;;;5038135;28;20033;-40
2021/11/01 13:53:53;;;;;;;39.50;24.93;;;11.50;73.50;;;;;;5037452;28;20414;-35
2021/11/01 13:59:06;;;;;;;55.92;35.67;;;11.40;73.70;;;;;;5037608;28;20037;-34
2021/11/01 14:12:08;;;;;;;85.70;50.30;;;11.20;74.40;;;;;;5037315;28;20381;-35
2021/11/01 14:14:45;;;;;;;111.43;70.63;;;11.10;74.60;;;;;;5037473;28;20422;-35
2021/11/01 16:16:06;;;;;;;54.83;32.45;;;9.70;78.90;;;;;;5055621;28;20098;-40
2021/11/01 16:18:37;;;;;;;55.00;30.58;;;9.70;79.10;;;;;;5055127;28;20082;-35
2021/11/01 16:21:03;;;;;;;48.15;29.60;;;9.60;79.00;;;;;;5055285;28;20061;-34
2021/11/01 16:25:58;;;;;;;52.95;30.13;;;9.60;79.10;;;;;;5055539;28;20025;-34
2021/11/01 16:28:25;;;;;;;56.65;30.40;;;9.60;79.10;;;;;;5054396;28;20278;-39
2021/11/01 16:33:32;;;;;;;55.38;30.88;;;9.60;79.30;;;;;;5054744;28;20025;-41
2021/11/01 16:35:59;;;;;;;51.75;31.00;;;9.50;79.20;;;;;;5055212;28;20032;-39
2021/11/01 16:38:28;;;;;;;60.65;31.90;;;9.50;79.20;;;;;;5055234;28;20163;-39
2021/11/01 16:40:54;;;;;;;59.05;30.98;;;9.50;79.20;;;;;;5055754;28;20036;-34
2021/11/01 16:43:24;;;;;;;64.97;30.55;;;9.50;79.20;;;;;;5054975;28;20028;-41
2021/11/01 16:45:53;;;;;;;62.40;30.30;;;9.50;79.20;;;;;;5055389;28;20433;-40
2021/11/01 16:48:21;;;;;;;62.83;34.15;;;9.50;79.10;;;;;;5054959;28;20114;-35
2021/11/01 16:50:52;;;;;;;67.70;35.13;;;9.50;79.70;;;;;;5055553;28;20041;-34
2021/11/01 16:53:19;;;;;;;62.30;33.17;;;9.50;79.10;;;;;;5055094;28;20057;-39
2021/11/01 16:55:48;;;;;;;109.50;50.03;;;9.40;79.10;;;;;;5053792;28;20203;-39
2021/11/01 16:58:24;;;;;;;80.35;42.15;;;9.40;79.20;;;;;;5055206;28;20032;-40
2021/11/01 17:01:00;;;;;;;65.07;34.83;;;9.40;79.30;;;;;;5055540;28;20116;-41
2021/11/01 17:03:47;;;;;;;77.93;39.95;;;9.40;79.20;;;;;;5054836;28;20033;-39
2021/11/01 17:06:32;;;;;;;70.82;35.40;;;9.40;79.20;;;;;;5055431;28;20032;-34
2021/11/01 17:22:20;;;;;;;99.30;48.28;;;9.30;79.60;;;;;;5054862;28;20036;-35
2021/11/01 18:53:23;;;;;;;148.20;57.92;;;9.60;79.60;;;;;;5057236;28;20063;-39
2021/11/01 18:55:54;;;;;;;123.63;53.17;;;9.60;79.50;;;;;;5056779;28;20135;-33
2021/11/01 18:58:24;;;;;;;133.50;53.85;;;9.60;79.50;;;;;;5056768;28;20436;-39
2021/11/01 19:00:52;;;;;;;79.85;38.85;;;9.50;79.20;;;;;;5057004;28;20039;-41
2021/11/01 19:03:23;;;;;;;70.45;38.60;;;9.50;79.20;;;;;;5056832;28;20025;-34
2021/11/01 20:04:02;;;;;;;83.20;45.22;;;9.40;81.80;;;;;;5054762;28;20117;-40
2021/11/01 21:26:58;;;;;;;120.20;58.35;;;10.30;82.10;;;;;;5058988;28;20066;-34
2021/11/01 21:29:28;;;;;;;130.35;61.33;;;10.30;82.10;;;;;;5058792;28;20037;-41
2021/11/01 21:31:54;;;;;;;130.65;57.58;;;10.30;82.20;;;;;;5058810;28;20456;-34
2021/11/01 21:34:29;;;;;;;118.43;55.28;;;10.30;82.30;;;;;;5057576;28;20029;-39
2021/11/01 21:36:55;;;;;;;104.65;52.80;;;10.40;82.50;;;;;;5058822;28;20037;-39
2021/11/01 21:39:21;;;;;;;110.88;55.55;;;10.40;82.50;;;;;;5058840;28;20036;-39
2021/11/01 21:41:47;;;;;;;104.45;53.35;;;10.40;82.40;;;;;;5058396;28;20029;-35
2021/11/01 21:44:13;;;;;;;84.75;46.45;;;10.40;82.30;;;;;;5058566;28;20048;-34
2021/11/01 21:46:38;;;;;;;85.68;47.28;;;10.40;82.10;;;;;;5058144;28;20079;-39
2021/11/01 21:49:04;;;;;;;93.60;48.83;;;10.40;82.00;;;;;;5058658;28;20029;-36
2021/11/01 21:51:32;;;;;;;85.35;48.10;;;10.40;81.70;;;;;;5058195;28;20017;-40
2021/11/01 21:54:07;;;;;;;90.28;49.72;;;10.40;81.50;;;;;;5058112;28;20367;-34
2021/11/01 21:56:33;;;;;;;91.97;48.58;;;10.40;81.10;;;;;;5058076;28;20049;-39
2021/11/01 22:09:42;;;;;;;114.43;53.25;;;10.30;80.50;;;;;;5058209;28;20044;-41
2021/11/01 22:21:21;;;;;;;82.32;45.38;;;10.20;80.10;;;;;;5051885;28;20322;-34
2021/11/01 22:44:48;;;;;;;97.32;47.95;;;10.10;79.90;;;;;;5057691;28;20079;-34
2021/11/01 22:55:43;;;;;;;80.03;45.90;;;10.00;79.80;;;;;;5057128;28;20060;-34
2021/11/01 22:58:09;;;;;;;74.72;44.83;;;10.00;79.70;;;;;;5056907;28;20036;-34
2021/11/01 23:00:50;;;;;;;72.40;44.95;;;10.00;79.70;;;;;;5057446;28;20037;-39
2021/11/01 23:33:20;;;;;;;74.35;42.42;;;9.90;79.70;;;;;;5056275;28;20043;-39
2021/11/01 23:35:45;;;;;;;72.70;42.37;;;10.00;79.70;;;;;;5056619;28;20055;-34
2021/11/01 23:38:11;;;;;;;76.25;45.78;;;10.00;79.80;;;;;;5056008;28;20104;-39
2021/11/01 23:40:37;;;;;;;71.07;43.70;;;10.00;79.90;;;;;;5055376;28;20025;-34
2021/11/01 23:43:02;;;;;;;80.05;44.47;;;10.00;80.00;;;;;;5056030;28;20047;-36
2021/11/01 23:45:29;;;;;;;76.65;43.72;;;10.00;80.10;;;;;;5056375;28;20025;-39
2021/11/01 23:47:55;;;;;;;74.55;45.85;;;10.00;80.10;;;;;;5055987;28;20357;-34
2021/11/01 23:50:20;;;;;;;83.00;46.15;;;10.00;80.10;;;;;;5056663;28;20021;-34
2021/11/01 23:52:56;;;;;;;86.38;48.13;;;10.00;80.20;;;;;;5056175;28;20078;-39
2021/11/01 23:55:22;;;;;;;88.90;50.10;;;10.00;80.30;;;;;;5055955;28;20053;-35
2021/11/01 23:57:48;;;;;;;75.40;45.40;;;10.00;80.50;;;;;;5056071;28;20040;-41
